sensor_id;sensor_type;location;lat;lon;timestamp;pressure;altitude;pressure_sealevel;temperature;humidity
55079;BME280;55187;49.496;6.010;2022-09-23T00:00:42;97662.53;;;4.58;100.00
55079;BME280;55187;49.496;6.010;2022-09-23T00:03:09;97661.63;;;4.49;100.00
55079;BME280;55187;49.496;6.010;2022-09-23T00:05:36;97660.50;;;4.52;100.00
55079;BME280;55187;49.496;6.010;2022-09-23T00:08:04;97655.13;;;4.44;100.00
55079;BME280;55187;49.496;6.010;2022-09-23T00:10:34;97661.38;;;4.43;100.00
55079;BME280;55187;49.496;6.010;2022-09-23T00:13:01;97643.53;;;4.46;100.00
55079;BME280;55187;49.496;6.010;2022-09-23T00:15:27;97647.81;;;4.47;100.00
55079;BME280;55187;49.496;6.010;2022-09-23T00:17:56;97647.72;;;4.39;100.00
55079;BME280;55187;49.496;6.010;2022-09-23T00:20:23;97639.28;;;4.45;100.00
55079;BME280;55187;49.496;6.010;2022-09-23T00:22:49;97644.09;;;4.50;100.00
55079;BME280;55187;49.496;6.010;2022-09-23T00:25:15;97636.22;;;4.50;100.00
55079;BME280;55187;49.496;6.010;2022-09-23T00:27:43;97645.88;;;4.49;100.00
55079;BME280;55187;49.496;6.010;2022-09-23T00:30:09;97641.16;;;4.53;100.00
55079;BME280;55187;49.496;6.010;2022-09-23T00:32:36;97633.50;;;4.41;100.00
55079;BME280;55187;49.496;6.010;2022-09-23T00:35:03;97636.03;;;4.33;100.00
55079;BME280;55187;49.496;6.010;2022-09-23T00:37:30;97629.69;;;4.36;100.00
55079;BME280;55187;49.496;6.010;2022-09-23T00:39:56;97632.59;;;4.33;100.00
55079;BME280;55187;49.496;6.010;2022-09-23T00:42:25;97632.06;;;4.29;100.00
55079;BME280;55187;49.496;6.010;2022-09-23T00:44:54;97633.03;;;4.28;100.00
55079;BME280;55187;49.496;6.010;2022-09-23T00:47:50;97632.81;;;4.22;100.00
55079;BME280;55187;49.496;6.010;2022-09-23T00:50:32;97632.56;;;4.15;100.00
55079;BME280;55187;49.496;6.010;2022-09-23T00:53:02;97636.81;;;4.16;100.00
55079;BME280;55187;49.496;6.010;2022-09-23T00:55:37;97635.59;;;4.10;100.00
55079;BME280;55187;49.496;6.010;2022-09-23T00:58:08;97632.06;;;4.02;100.00
55079;BME280;55187;49.496;6.010;2022-09-23T01:00:37;97630.13;;;4.04;100.00
55079;BME280;55187;49.496;6.010;2022-09-23T01:03:07;97631.53;;;3.98;100.00
55079;BME280;55187;49.496;6.010;2022-09-23T01:05:34;97631.81;;;3.95;100.00
55079;BME280;55187;49.496;6.010;2022-09-23T01:08:03;97631.13;;;3.93;100.00
55079;BME280;55187;49.496;6.010;2022-09-23T01:10:39;97633.91;;;3.82;100.00
55079;BME280;55187;49.496;6.010;2022-09-23T01:13:19;97626.22;;;3.70;100.00
55079;BME280;55187;49.496;6.010;2022-09-23T01:15:57;97629.28;;;3.66;100.00
55079;BME280;55187;49.496;6.010;2022-09-23T01:18:41;97627.78;;;3.63;100.00
55079;BME280;55187;49.496;6.010;2022-09-23T01:24:30;97623.06;;;3.76;100.00
55079;BME280;55187;49.496;6.010;2022-09-23T01:27:13;97621.84;;;3.71;100.00
55079;BME280;55187;49.496;6.010;2022-09-23T01:30:13;97613.31;;;3.69;100.00
55079;BME280;55187;49.496;6.010;2022-09-23T01:38:43;97613.16;;;3.70;100.00
55079;BME280;55187;49.496;6.010;2022-09-23T01:44:28;97613.75;;;3.64;100.00
55079;BME280;55187;49.496;6.010;2022-09-23T01:47:09;97617.44;;;3.71;100.00
55079;BME280;55187;49.496;6.010;2022-09-23T01:49:53;97616.19;;;3.66;100.00
55079;BME280;55187;49.496;6.010;2022-09-23T01:58:06;97624.50;;;3.51;100.00
55079;BME280;55187;49.496;6.010;2022-09-23T02:00:38;97624.97;;;3.37;100.00
55079;BME280;55187;49.496;6.010;2022-09-23T02:03:21;97629.78;;;3.32;100.00
55079;BME280;55187;49.496;6.010;2022-09-23T02:06:00;97624.28;;;3.35;100.00
55079;BME280;55187;49.496;6.010;2022-09-23T02:08:34;97626.06;;;3.34;100.00
55079;BME280;55187;49.496;6.010;2022-09-23T02:11:08;97621.53;;;3.36;100.00
55079;BME280;55187;49.496;6.010;2022-09-23T02:13:57;97628.38;;;3.38;100.00
55079;BME280;55187;49.496;6.010;2022-09-23T02:16:38;97623.56;;;3.33;100.00
55079;BME280;55187;49.496;6.010;2022-09-23T02:19:23;97620.16;;;3.32;100.00
55079;BME280;55187;49.496;6.010;2022-09-23T02:22:03;97620.28;;;3.21;100.00
55079;BME280;55187;49.496;6.010;2022-09-23T02:24:33;97623.19;;;3.18;100.00
55079;BME280;55187;49.496;6.010;2022-09-23T02:27:16;97622.22;;;3.19;100.00
55079;BME280;55187;49.496;6.010;2022-09-23T02:29:53;97616.47;;;3.15;100.00
55079;BME280;55187;49.496;6.010;2022-09-23T02:32:29;97618.66;;;3.20;100.00
55079;BME280;55187;49.496;6.010;2022-09-23T02:35:21;97612.47;;;3.11;100.00
55079;BME280;55187;49.496;6.010;2022-09-23T02:38:23;97614.78;;;3.14;100.00
55079;BME280;55187;49.496;6.010;2022-09-23T02:41:12;97608.47;;;3.17;100.00
55079;BME280;55187;49.496;6.010;2022-09-23T02:46:28;97598.69;;;3.19;100.00
55079;BME280;55187;49.496;6.010;2022-09-23T02:48:59;97593.31;;;3.30;100.00
55079;BME280;55187;49.496;6.010;2022-09-23T02:51:30;97592.66;;;3.19;100.00
55079;BME280;55187;49.496;6.010;2022-09-23T02:54:05;97590.19;;;3.07;100.00
55079;BME280;55187;49.496;6.010;2022-09-23T02:56:33;97588.53;;;3.16;100.00
55079;BME280;55187;49.496;6.010;2022-09-23T02:59:00;97596.91;;;3.20;100.00
55079;BME280;55187;49.496;6.010;2022-09-23T03:10:08;97589.88;;;3.10;100.00
55079;BME280;55187;49.496;6.010;2022-09-23T03:12:51;97584.41;;;3.04;100.00
55079;BME280;55187;49.496;6.010;2022-09-23T03:15:35;97574.50;;;2.98;100.00
55079;BME280;55187;49.496;6.010;2022-09-23T03:18:28;97584.94;;;3.07;100.00
55079;BME280;55187;49.496;6.010;2022-09-23T03:21:01;97574.75;;;3.14;100.00
55079;BME280;55187;49.496;6.010;2022-09-23T03:23:33;97567.47;;;3.08;100.00
55079;BME280;55187;49.496;6.010;2022-09-23T03:26:06;97565.16;;;3.05;100.00
55079;BME280;55187;49.496;6.010;2022-09-23T03:28:35;97569.25;;;3.07;100.00
55079;BME280;55187;49.496;6.010;2022-09-23T03:31:03;97569.00;;;3.01;100.00
55079;BME280;55187;49.496;6.010;2022-09-23T03:33:31;97564.59;;;3.01;100.00
55079;BME280;55187;49.496;6.010;2022-09-23T03:36:04;97559.94;;;2.95;100.00
55079;BME280;55187;49.496;6.010;2022-09-23T03:38:45;97561.56;;;3.06;100.00
55079;BME280;55187;49.496;6.010;2022-09-23T03:41:22;97552.63;;;3.08;100.00
55079;BME280;55187;49.496;6.010;2022-09-23T03:43:57;97558.94;;;3.15;100.00
55079;BME280;55187;49.496;6.010;2022-09-23T03:46:25;97556.31;;;3.06;100.00
55079;BME280;55187;49.496;6.010;2022-09-23T03:49:00;97553.28;;;3.10;100.00
55079;BME280;55187;49.496;6.010;2022-09-23T03:51:31;97565.41;;;3.11;100.00
55079;BME280;55187;49.496;6.010;2022-09-23T03:53:58;97561.28;;;3.09;100.00
55079;BME280;55187;49.496;6.010;2022-09-23T03:56:24;97562.13;;;3.00;100.00
55079;BME280;55187;49.496;6.010;2022-09-23T03:58:50;97561.31;;;2.89;100.00
55079;BME280;55187;49.496;6.010;2022-09-23T04:01:17;97564.34;;;2.94;100.00
55079;BME280;55187;49.496;6.010;2022-09-23T04:03:43;97559.25;;;2.93;100.00
55079;BME280;55187;49.496;6.010;2022-09-23T04:06:09;97567.91;;;2.93;100.00
55079;BME280;55187;49.496;6.010;2022-09-23T04:08:36;97551.41;;;2.93;100.00
55079;BME280;55187;49.496;6.010;2022-09-23T04:11:03;97550.97;;;2.98;100.00
55079;BME280;55187;49.496;6.010;2022-09-23T04:13:30;97554.03;;;2.93;100.00
55079;BME280;55187;49.496;6.010;2022-09-23T04:16:00;97552.22;;;2.93;100.00
55079;BME280;55187;49.496;6.010;2022-09-23T04:18:26;97557.72;;;3.00;100.00
55079;BME280;55187;49.496;6.010;2022-09-23T04:20:58;97555.09;;;3.00;100.00
55079;BME280;55187;49.496;6.010;2022-09-23T04:23:26;97557.31;;;2.95;100.00
55079;BME280;55187;49.496;6.010;2022-09-23T04:25:52;97552.09;;;2.95;100.00
55079;BME280;55187;49.496;6.010;2022-09-23T04:28:20;97547.00;;;2.84;100.00
55079;BME280;55187;49.496;6.010;2022-09-23T04:30:46;97548.78;;;2.93;100.00
55079;BME280;55187;49.496;6.010;2022-09-23T04:33:14;97548.38;;;2.88;100.00
55079;BME280;55187;49.496;6.010;2022-09-23T04:35:41;97554.31;;;2.90;100.00
55079;BME280;55187;49.496;6.010;2022-09-23T04:38:11;97546.47;;;2.90;100.00
55079;BME280;55187;49.496;6.010;2022-09-23T04:40:37;97535.72;;;2.93;100.00
55079;BME280;55187;49.496;6.010;2022-09-23T04:43:04;97549.19;;;2.98;100.00
55079;BME280;55187;49.496;6.010;2022-09-23T04:45:31;97533.63;;;3.06;100.00
55079;BME280;55187;49.496;6.010;2022-09-23T04:47:57;97525.50;;;3.09;100.00
55079;BME280;55187;49.496;6.010;2022-09-23T04:50:24;97528.00;;;3.01;100.00
55079;BME280;55187;49.496;6.010;2022-09-23T04:52:52;97541.47;;;3.06;100.00
55079;BME280;55187;49.496;6.010;2022-09-23T04:55:20;97534.31;;;2.99;100.00
55079;BME280;55187;49.496;6.010;2022-09-23T04:57:47;97536.81;;;3.00;100.00
55079;BME280;55187;49.496;6.010;2022-09-23T05:00:14;97535.56;;;3.04;100.00
55079;BME280;55187;49.496;6.010;2022-09-23T05:02:44;97537.38;;;3.04;100.00
55079;BME280;55187;49.496;6.010;2022-09-23T05:05:11;97530.44;;;3.12;100.00
55079;BME280;55187;49.496;6.010;2022-09-23T05:07:39;97535.13;;;3.19;100.00
55079;BME280;55187;49.496;6.010;2022-09-23T05:10:06;97530.56;;;3.21;100.00
55079;BME280;55187;49.496;6.010;2022-09-23T05:12:32;97537.34;;;3.13;100.00
55079;BME280;55187;49.496;6.010;2022-09-23T05:14:59;97534.06;;;3.02;100.00
55079;BME280;55187;49.496;6.010;2022-09-23T05:17:28;97531.44;;;2.92;100.00
55079;BME280;55187;49.496;6.010;2022-09-23T05:19:58;97537.25;;;2.86;100.00
55079;BME280;55187;49.496;6.010;2022-09-23T05:22:25;97532.56;;;2.89;100.00
55079;BME280;55187;49.496;6.010;2022-09-23T05:24:52;97543.72;;;2.82;100.00
55079;BME280;55187;49.496;6.010;2022-09-23T05:27:19;97544.94;;;2.78;100.00
55079;BME280;55187;49.496;6.010;2022-09-23T05:29:46;97545.53;;;2.71;100.00
55079;BME280;55187;49.496;6.010;2022-09-23T05:32:13;97550.75;;;2.71;100.00
55079;BME280;55187;49.496;6.010;2022-09-23T05:34:43;97550.47;;;2.75;100.00
55079;BME280;55187;49.496;6.010;2022-09-23T05:37:09;97548.28;;;2.60;100.00
55079;BME280;55187;49.496;6.010;2022-09-23T05:39:36;97552.38;;;2.53;100.00
55079;BME280;55187;49.496;6.010;2022-09-23T05:42:03;97550.44;;;2.45;100.00
55079;BME280;55187;49.496;6.010;2022-09-23T05:44:30;97552.94;;;2.47;100.00
55079;BME280;55187;49.496;6.010;2022-09-23T05:46:56;97552.78;;;2.48;100.00
55079;BME280;55187;49.496;6.010;2022-09-23T05:49:23;97550.56;;;2.44;100.00
55079;BME280;55187;49.496;6.010;2022-09-23T05:51:49;97562.97;;;2.42;100.00
55079;BME280;55187;49.496;6.010;2022-09-23T05:54:16;97557.88;;;2.50;100.00
55079;BME280;55187;49.496;6.010;2022-09-23T05:56:42;97567.50;;;2.59;100.00
55079;BME280;55187;49.496;6.010;2022-09-23T05:59:09;97562.03;;;2.62;100.00
55079;BME280;55187;49.496;6.010;2022-09-23T06:01:35;97561.88;;;2.64;100.00
55079;BME280;55187;49.496;6.010;2022-09-23T06:04:05;97565.72;;;2.60;100.00
55079;BME280;55187;49.496;6.010;2022-09-23T06:06:35;97567.38;;;2.61;100.00
55079;BME280;55187;49.496;6.010;2022-09-23T06:09:02;97563.78;;;2.62;100.00
55079;BME280;55187;49.496;6.010;2022-09-23T06:11:30;97560.50;;;2.69;100.00
55079;BME280;55187;49.496;6.010;2022-09-23T06:13:58;97565.16;;;2.76;100.00
55079;BME280;55187;49.496;6.010;2022-09-23T06:16:27;97563.94;;;2.80;100.00
55079;BME280;55187;49.496;6.010;2022-09-23T06:18:54;97565.03;;;2.87;100.00
55079;BME280;55187;49.496;6.010;2022-09-23T06:21:20;97563.09;;;2.89;100.00
55079;BME280;55187;49.496;6.010;2022-09-23T06:23:47;97560.47;;;2.99;100.00
55079;BME280;55187;49.496;6.010;2022-09-23T06:26:14;97561.13;;;3.10;100.00
55079;BME280;55187;49.496;6.010;2022-09-23T06:28:42;97554.66;;;3.14;100.00
55079;BME280;55187;49.496;6.010;2022-09-23T06:31:11;97556.59;;;3.22;100.00
55079;BME280;55187;49.496;6.010;2022-09-23T06:33:38;97560.28;;;3.29;100.00
55079;BME280;55187;49.496;6.010;2022-09-23T06:36:06;97564.78;;;3.37;100.00
55079;BME280;55187;49.496;6.010;2022-09-23T06:38:33;97560.13;;;3.41;100.00
55079;BME280;55187;49.496;6.010;2022-09-23T06:41:00;97565.47;;;3.39;100.00
55079;BME280;55187;49.496;6.010;2022-09-23T06:43:29;97571.66;;;3.38;100.00
55079;BME280;55187;49.496;6.010;2022-09-23T06:46:00;97575.38;;;3.35;100.00
55079;BME280;55187;49.496;6.010;2022-09-23T06:48:27;97568.63;;;3.43;100.00
55079;BME280;55187;49.496;6.010;2022-09-23T06:50:58;97563.94;;;3.46;100.00
55079;BME280;55187;49.496;6.010;2022-09-23T06:53:24;97570.69;;;3.49;100.00
55079;BME280;55187;49.496;6.010;2022-09-23T06:56:01;97565.00;;;3.53;100.00
55079;BME280;55187;49.496;6.010;2022-09-23T06:58:30;97572.13;;;3.61;100.00
55079;BME280;55187;49.496;6.010;2022-09-23T07:01:01;97565.78;;;3.73;100.00
55079;BME280;55187;49.496;6.010;2022-09-23T07:03:28;97569.03;;;3.85;100.00
55079;BME280;55187;49.496;6.010;2022-09-23T07:05:56;97573.94;;;3.98;100.00
55079;BME280;55187;49.496;6.010;2022-09-23T07:08:24;97571.78;;;4.11;100.00
55079;BME280;55187;49.496;6.010;2022-09-23T07:10:52;97570.31;;;4.27;100.00
55079;BME280;55187;49.496;6.010;2022-09-23T07:13:19;97572.97;;;4.45;100.00
55079;BME280;55187;49.496;6.010;2022-09-23T07:15:49;97570.28;;;4.54;100.00
55079;BME280;55187;49.496;6.010;2022-09-23T07:18:16;97569.28;;;4.73;100.00
55079;BME280;55187;49.496;6.010;2022-09-23T07:20:43;97572.50;;;4.85;100.00
55079;BME280;55187;49.496;6.010;2022-09-23T07:23:09;97575.31;;;5.10;100.00
55079;BME280;55187;49.496;6.010;2022-09-23T07:25:37;97570.81;;;6.06;100.00
55079;BME280;55187;49.496;6.010;2022-09-23T07:28:03;97570.69;;;8.82;100.00
55079;BME280;55187;49.496;6.010;2022-09-23T07:30:30;97564.31;;;10.84;100.00
55079;BME280;55187;49.496;6.010;2022-09-23T07:32:57;97558.84;;;12.40;95.00
55079;BME280;55187;49.496;6.010;2022-09-23T07:35:23;97551.00;;;13.40;80.51
55079;BME280;55187;49.496;6.010;2022-09-23T07:37:55;97551.53;;;14.85;73.31
55079;BME280;55187;49.496;6.010;2022-09-23T07:40:22;97564.94;;;15.54;67.94
55079;BME280;55187;49.496;6.010;2022-09-23T07:42:48;97563.34;;;15.97;62.88
55079;BME280;55187;49.496;6.010;2022-09-23T07:45:15;97564.91;;;16.23;62.52
55079;BME280;55187;49.496;6.010;2022-09-23T07:47:41;97567.88;;;16.63;59.54
55079;BME280;55187;49.496;6.010;2022-09-23T07:50:08;97566.50;;;16.42;60.05
55079;BME280;55187;49.496;6.010;2022-09-23T07:52:37;97567.44;;;15.99;61.31
55079;BME280;55187;49.496;6.010;2022-09-23T07:55:05;97567.34;;;16.24;60.89
55079;BME280;55187;49.496;6.010;2022-09-23T07:57:32;97572.19;;;16.94;58.79
55079;BME280;55187;49.496;6.010;2022-09-23T07:59:58;97567.78;;;17.77;56.84
55079;BME280;55187;49.496;6.010;2022-09-23T08:02:26;97568.56;;;17.78;56.87
55079;BME280;55187;49.496;6.010;2022-09-23T08:04:54;97571.28;;;18.13;55.95
55079;BME280;55187;49.496;6.010;2022-09-23T08:07:21;97572.72;;;18.33;55.92
55079;BME280;55187;49.496;6.010;2022-09-23T08:09:50;97568.72;;;19.04;53.27
55079;BME280;55187;49.496;6.010;2022-09-23T08:12:18;97570.03;;;20.03;49.72
55079;BME280;55187;49.496;6.010;2022-09-23T08:14:45;97578.06;;;19.81;51.36
55079;BME280;55187;49.496;6.010;2022-09-23T08:17:11;97573.72;;;19.63;51.01
55079;BME280;55187;49.496;6.010;2022-09-23T08:19:39;97569.53;;;18.88;53.42
55079;BME280;55187;49.496;6.010;2022-09-23T08:22:05;97573.59;;;18.10;56.47
55079;BME280;55187;49.496;6.010;2022-09-23T08:24:31;97572.44;;;18.06;56.50
55079;BME280;55187;49.496;6.010;2022-09-23T08:26:58;97570.19;;;18.26;55.01
55079;BME280;55187;49.496;6.010;2022-09-23T08:29:25;97571.72;;;18.10;55.45
55079;BME280;55187;49.496;6.010;2022-09-23T08:31:52;97571.09;;;17.14;58.22
55079;BME280;55187;49.496;6.010;2022-09-23T08:34:20;97571.84;;;17.45;58.03
55079;BME280;55187;49.496;6.010;2022-09-23T08:36:48;97568.34;;;16.90;60.53
55079;BME280;55187;49.496;6.010;2022-09-23T08:39:16;97563.34;;;16.64;62.24
55079;BME280;55187;49.496;6.010;2022-09-23T08:44:47;97564.38;;;17.23;61.28
55079;BME280;55187;49.496;6.010;2022-09-23T08:47:22;97560.09;;;17.69;59.29
55079;BME280;55187;49.496;6.010;2022-09-23T08:52:31;97552.53;;;17.66;59.28
55079;BME280;55187;49.496;6.010;2022-09-23T08:55:02;97550.28;;;18.10;59.43
55079;BME280;55187;49.496;6.010;2022-09-23T09:00:26;97562.75;;;19.14;51.44
55079;BME280;55187;49.496;6.010;2022-09-23T09:02:56;97564.09;;;18.31;56.81
55079;BME280;55187;49.496;6.010;2022-09-23T09:05:25;97563.47;;;18.12;59.74
55079;BME280;55187;49.496;6.010;2022-09-23T09:07:56;97568.34;;;18.15;60.03
55079;BME280;55187;49.496;6.010;2022-09-23T09:10:31;97567.31;;;18.04;60.18
55079;BME280;55187;49.496;6.010;2022-09-23T09:13:09;97563.53;;;18.29;60.44
55079;BME280;55187;49.496;6.010;2022-09-23T09:16:04;97562.88;;;18.91;57.91
55079;BME280;55187;49.496;6.010;2022-09-23T09:18:45;97563.22;;;18.13;58.19
55079;BME280;55187;49.496;6.010;2022-09-23T09:21:15;97568.34;;;18.55;59.12
55079;BME280;55187;49.496;6.010;2022-09-23T09:23:55;97553.66;;;19.49;55.43
55079;BME280;55187;49.496;6.010;2022-09-23T09:26:25;97560.97;;;18.34;57.51
55079;BME280;55187;49.496;6.010;2022-09-23T09:29:12;97552.94;;;18.62;60.40
55079;BME280;55187;49.496;6.010;2022-09-23T09:31:45;97550.38;;;18.27;60.42
55079;BME280;55187;49.496;6.010;2022-09-23T09:34:28;97551.50;;;17.91;61.56
55079;BME280;55187;49.496;6.010;2022-09-23T09:37:14;97558.47;;;16.91;62.89
55079;BME280;55187;49.496;6.010;2022-09-23T09:39:44;97566.50;;;17.45;64.19
55079;BME280;55187;49.496;6.010;2022-09-23T09:42:18;97559.81;;;17.12;64.71
55079;BME280;55187;49.496;6.010;2022-09-23T09:45:00;97565.94;;;17.01;65.45
55079;BME280;55187;49.496;6.010;2022-09-23T09:50:42;97554.41;;;17.54;63.88
55079;BME280;55187;49.496;6.010;2022-09-23T09:53:23;97555.31;;;18.59;60.65
55079;BME280;55187;49.496;6.010;2022-09-23T09:56:03;97553.00;;;19.42;57.49
55079;BME280;55187;49.496;6.010;2022-09-23T09:58:47;97553.03;;;20.42;56.81
55079;BME280;55187;49.496;6.010;2022-09-23T10:01:20;97541.22;;;20.92;51.32
55079;BME280;55187;49.496;6.010;2022-09-23T10:03:48;97540.88;;;20.83;53.36
55079;BME280;55187;49.496;6.010;2022-09-23T10:06:19;97542.94;;;20.27;55.54
55079;BME280;55187;49.496;6.010;2022-09-23T10:09:01;97547.28;;;19.55;54.37
55079;BME280;55187;49.496;6.010;2022-09-23T10:11:30;97540.97;;;20.44;52.13
55079;BME280;55187;49.496;6.010;2022-09-23T10:14:10;97538.94;;;21.38;48.10
55079;BME280;55187;49.496;6.010;2022-09-23T10:16:39;97536.47;;;20.50;51.03
55079;BME280;55187;49.496;6.010;2022-09-23T10:19:25;97548.00;;;19.84;50.65
55079;BME280;55187;49.496;6.010;2022-09-23T10:21:55;97538.19;;;18.48;55.26
55079;BME280;55187;49.496;6.010;2022-09-23T10:24:28;97537.53;;;16.88;59.09
55079;BME280;55187;49.496;6.010;2022-09-23T10:26:59;97541.34;;;17.22;64.82
55079;BME280;55187;49.496;6.010;2022-09-23T10:29:49;97542.84;;;17.18;62.24
55079;BME280;55187;49.496;6.010;2022-09-23T10:32:35;97533.69;;;17.26;58.94
55079;BME280;55187;49.496;6.010;2022-09-23T10:35:14;97530.13;;;18.60;54.62
55079;BME280;55187;49.496;6.010;2022-09-23T10:37:52;97523.38;;;19.54;52.75
55079;BME280;55187;49.496;6.010;2022-09-23T10:40:30;97523.22;;;18.93;52.12
55079;BME280;55187;49.496;6.010;2022-09-23T10:43:26;97519.91;;;18.16;54.64
55079;BME280;55187;49.496;6.010;2022-09-23T10:46:12;97519.84;;;17.29;58.99
55079;BME280;55187;49.496;6.010;2022-09-23T10:49:20;97519.94;;;17.10;61.97
55079;BME280;55187;49.496;6.010;2022-09-23T10:52:23;97518.91;;;17.23;59.58
55079;BME280;55187;49.496;6.010;2022-09-23T10:55:20;97515.63;;;17.09;60.82
55079;BME280;55187;49.496;6.010;2022-09-23T11:03:36;97511.06;;;16.68;58.65
55079;BME280;55187;49.496;6.010;2022-09-23T11:17:45;97498.19;;;16.76;60.21
55079;BME280;55187;49.496;6.010;2022-09-23T11:20:30;97505.16;;;17.08;62.31
55079;BME280;55187;49.496;6.010;2022-09-23T11:23:28;97501.31;;;16.92;61.84
55079;BME280;55187;49.496;6.010;2022-09-23T11:29:05;97496.00;;;17.51;58.33
55079;BME280;55187;49.496;6.010;2022-09-23T11:31:51;97497.50;;;17.35;55.34
55079;BME280;55187;49.496;6.010;2022-09-23T11:34:45;97488.63;;;17.93;53.44
55079;BME280;55187;49.496;6.010;2022-09-23T11:37:19;97485.13;;;18.62;54.63
55079;BME280;55187;49.496;6.010;2022-09-23T11:40:02;97484.41;;;18.38;57.30
55079;BME280;55187;49.496;6.010;2022-09-23T11:42:35;97482.25;;;17.82;53.43
55079;BME280;55187;49.496;6.010;2022-09-23T11:45:08;97479.25;;;17.55;55.59
55079;BME280;55187;49.496;6.010;2022-09-23T11:47:50;97473.50;;;17.87;58.74
55079;BME280;55187;49.496;6.010;2022-09-23T11:50:24;97466.31;;;17.52;57.54
55079;BME280;55187;49.496;6.010;2022-09-23T11:53:06;97467.34;;;17.87;57.50
55079;BME280;55187;49.496;6.010;2022-09-23T11:58:30;97460.81;;;18.23;62.29
55079;BME280;55187;49.496;6.010;2022-09-23T12:01:04;97456.41;;;18.17;62.63
55079;BME280;55187;49.496;6.010;2022-09-23T12:03:43;97454.53;;;17.89;64.41
55079;BME280;55187;49.496;6.010;2022-09-23T12:06:19;97445.72;;;17.41;59.36
55079;BME280;55187;49.496;6.010;2022-09-23T12:08:54;97454.22;;;17.61;59.52
55079;BME280;55187;49.496;6.010;2022-09-23T12:11:39;97455.75;;;18.10;56.94
55079;BME280;55187;49.496;6.010;2022-09-23T12:17:06;97440.88;;;17.38;58.68
55079;BME280;55187;49.496;6.010;2022-09-23T12:19:53;97452.09;;;17.64;57.22
55079;BME280;55187;49.496;6.010;2022-09-23T12:25:34;97457.00;;;17.55;61.35
55079;BME280;55187;49.496;6.010;2022-09-23T12:28:09;97451.56;;;17.26;57.80
55079;BME280;55187;49.496;6.010;2022-09-23T12:30:38;97457.13;;;17.84;61.14
55079;BME280;55187;49.496;6.010;2022-09-23T12:33:23;97456.22;;;17.31;62.63
55079;BME280;55187;49.496;6.010;2022-09-23T12:35:53;97455.25;;;17.72;61.47
55079;BME280;55187;49.496;6.010;2022-09-23T12:38:51;97458.03;;;17.66;64.12
55079;BME280;55187;49.496;6.010;2022-09-23T12:41:32;97457.84;;;17.32;67.73
55079;BME280;55187;49.496;6.010;2022-09-23T12:44:29;97446.72;;;17.75;56.43
55079;BME280;55187;49.496;6.010;2022-09-23T12:49:56;97447.13;;;17.44;65.70
55079;BME280;55187;49.496;6.010;2022-09-23T12:52:26;97443.44;;;17.33;66.59
55079;BME280;55187;49.496;6.010;2022-09-23T12:57:51;97450.63;;;17.20;66.23
55079;BME280;55187;49.496;6.010;2022-09-23T13:00:23;97459.81;;;17.01;66.37
55079;BME280;55187;49.496;6.010;2022-09-23T13:02:52;97453.31;;;16.55;71.84
55079;BME280;55187;49.496;6.010;2022-09-23T13:05:32;97458.88;;;16.53;73.05
55079;BME280;55187;49.496;6.010;2022-09-23T13:08:23;97460.78;;;16.04;76.83
55079;BME280;55187;49.496;6.010;2022-09-23T13:11:01;97457.38;;;16.15;76.31
55079;BME280;55187;49.496;6.010;2022-09-23T13:13:34;97454.41;;;15.87;77.81
55079;BME280;55187;49.496;6.010;2022-09-23T13:18:48;97441.19;;;16.41;74.81
55079;BME280;55187;49.496;6.010;2022-09-23T13:21:17;97435.69;;;16.35;76.40
55079;BME280;55187;49.496;6.010;2022-09-23T13:26:36;97418.63;;;16.25;76.79
55079;BME280;55187;49.496;6.010;2022-09-23T13:29:05;97423.53;;;16.40;75.68
55079;BME280;55187;49.496;6.010;2022-09-23T13:31:41;97423.25;;;16.18;77.61
55079;BME280;55187;49.496;6.010;2022-09-23T13:34:11;97425.47;;;16.32;76.76
55079;BME280;55187;49.496;6.010;2022-09-23T13:36:46;97425.88;;;16.48;75.90
55079;BME280;55187;49.496;6.010;2022-09-23T13:39:26;97423.44;;;16.46;75.58
55079;BME280;55187;49.496;6.010;2022-09-23T13:42:02;97414.06;;;16.67;73.60
55079;BME280;55187;49.496;6.010;2022-09-23T13:44:29;97423.94;;;16.55;74.72
55079;BME280;55187;49.496;6.010;2022-09-23T13:46:58;97422.66;;;16.57;72.06
55079;BME280;55187;49.496;6.010;2022-09-23T13:49:31;97428.38;;;16.31;74.43
55079;BME280;55187;49.496;6.010;2022-09-23T13:52:01;97422.09;;;16.25;74.93
55079;BME280;55187;49.496;6.010;2022-09-23T13:54:30;97419.84;;;16.41;75.17
55079;BME280;55187;49.496;6.010;2022-09-23T13:56:58;97421.00;;;16.14;75.21
55079;BME280;55187;49.496;6.010;2022-09-23T13:59:28;97414.25;;;15.82;73.52
55079;BME280;55187;49.496;6.010;2022-09-23T14:02:02;97411.88;;;15.55;75.14
55079;BME280;55187;49.496;6.010;2022-09-23T14:04:29;97397.97;;;15.53;73.87
55079;BME280;55187;49.496;6.010;2022-09-23T14:06:56;97399.44;;;15.67;73.94
55079;BME280;55187;49.496;6.010;2022-09-23T14:09:25;97391.63;;;15.66;75.30
55079;BME280;55187;49.496;6.010;2022-09-23T14:11:54;97384.91;;;16.12;72.85
55079;BME280;55187;49.496;6.010;2022-09-23T14:14:21;97382.34;;;16.17;71.99
55079;BME280;55187;49.496;6.010;2022-09-23T14:16:49;97388.25;;;15.59;74.07
55079;BME280;55187;49.496;6.010;2022-09-23T14:19:19;97385.53;;;15.96;72.87
55079;BME280;55187;49.496;6.010;2022-09-23T14:21:51;97398.63;;;15.85;73.92
55079;BME280;55187;49.496;6.010;2022-09-23T14:24:28;97401.84;;;16.06;71.69
55079;BME280;55187;49.496;6.010;2022-09-23T14:26:59;97392.91;;;16.12;73.20
55079;BME280;55187;49.496;6.010;2022-09-23T14:29:32;97395.75;;;15.99;72.34
55079;BME280;55187;49.496;6.010;2022-09-23T14:32:08;97399.13;;;16.24;67.55
55079;BME280;55187;49.496;6.010;2022-09-23T14:35:06;97400.03;;;15.88;74.16
55079;BME280;55187;49.496;6.010;2022-09-23T14:37:42;97384.09;;;15.63;76.09
55079;BME280;55187;49.496;6.010;2022-09-23T14:40:28;97387.72;;;15.50;76.15
55079;BME280;55187;49.496;6.010;2022-09-23T14:43:26;97394.25;;;15.17;77.63
55079;BME280;55187;49.496;6.010;2022-09-23T14:45:55;97389.06;;;14.79;78.10
55079;BME280;55187;49.496;6.010;2022-09-23T14:48:33;97388.81;;;15.05;78.98
55079;BME280;55187;49.496;6.010;2022-09-23T14:51:03;97387.09;;;14.93;80.71